Flight Track Log - Related Links

Times and Time Zones

All times are in EDT time to prevent confusion due to time zone crossing. See the FLG3729 flight status page for this flight to view local times or setup timezone preferences in your user account.

Time Position Orientation Groundspeed Altitude Reporting Facility
EDT Latitude Longitude Course Direction KTS MPH feet Rate Location/Type
Thu 05:54:49 AM 42.7675 -73.8033 283° West 157 181 1,300  Level Boston Center
Thu 05:55:43 AM 42.8131 -73.8269 339° North 201 231 2,900 2,348 Climbing Boston Center
Thu 05:57:30 AM 42.9056 -73.9283 321° Northwest 262 302 7,600 2,551 Climbing Boston Center
Thu 05:58:30 AM 42.9189 -74.0136 282° West 251 289 10,000 2,250 Climbing Boston Center
Thu 05:59:30 AM 42.9339 -74.1331 280° West 282 325 12,100 1,864 Climbing Boston Center
Thu 06:00:00 AM 42.8656 -74.5270 283° West  Level FlightAware Approximate
Thu 06:00:42 AM 42.9525 -74.2811 280° West 324 373 14,100  Level Boston Center
Thu 06:01:42 AM 42.9669 -74.4064 279° West 338 389 15,400 1,400 Climbing Boston Center
Thu 06:02:42 AM 42.9811 -74.5431 278° West 363 418 16,900 1,250 Climbing Boston Center
Thu 06:03:42 AM 42.9975 -74.6772 280° West 369 425 17,900 1,200 Climbing Boston Center
Thu 06:04:42 AM 43.0114 -74.8056 278° West 369 425 19,300 1,300 Climbing Boston Center
Thu 06:05:42 AM 43.0275 -74.9394 279° West 369 425 20,500 1,100 Climbing Boston Center
Thu 06:06:42 AM 43.0411 -75.0764 278° West 369 425 21,500 1,050 Climbing Boston Center
Thu 06:07:42 AM 43.0564 -75.2192 278° West 369 425 22,600 1,100 Climbing Boston Center
Thu 06:08:42 AM 43.0717 -75.3592 279° West 369 425 23,700 1,150 Climbing Boston Center
Thu 06:09:42 AM 43.0867 -75.4964 279° West 369 425 24,900 1,050 Climbing Boston Center
Thu 06:10:42 AM 43.0997 -75.6308 278° West 369 425 25,800 750 Climbing Boston Center
Thu 06:11:42 AM 43.1144 -75.7708 278° West 369 425 26,400 550 Climbing Boston Center
Thu 06:12:42 AM 43.1297 -75.8914 280° West 369 425 26,900 650 Climbing Boston Center
Thu 06:13:42 AM 43.1472 -76.0631 278° West 375 432 27,700 337 Climbing Boston Center
Thu 06:15:58 AM 43.1447 -76.3858 270° West 394 453 28,000 92 Climbing Cleveland Center
Thu 06:16:58 AM 43.1317 -76.5433 264° West 413 475 28,000  Level Cleveland Center
Thu 06:17:58 AM 43.1183 -76.6978 263° West 413 475 28,000  Level Cleveland Center
Thu 06:18:58 AM 43.1044 -76.8464 263° West 408 470 28,000  Level Cleveland Center
Thu 06:19:58 AM 43.0906 -77.0008 263° West 408 470 28,000  Level Cleveland Center
Thu 06:20:58 AM 43.0783 -77.1522 264° West 408 470 28,000  Level Cleveland Center
Thu 06:21:58 AM 43.0619 -77.3067 262° West 408 470 28,000  Level Cleveland Center
Thu 06:22:58 AM 43.0475 -77.4581 263° West 408 470 28,000  Level Cleveland Center
Thu 06:23:58 AM 43.0347 -77.6092 263° West 408 470 28,000  Level Cleveland Center
Thu 06:24:58 AM 43.0197 -77.7606 262° West 408 470 28,000  Level Cleveland Center
Thu 06:25:58 AM 43.0047 -77.9144 262° West 408 470 28,000  Level Cleveland Center
Thu 06:26:58 AM 42.9892 -78.0656 262° West 408 470 28,000  Level Cleveland Center
Thu 06:27:58 AM 42.9719 -78.2308 262° West 408 470 28,000  Level Cleveland Center
Thu 06:28:58 AM 42.9561 -78.3819 262° West 408 470 28,000  Level Cleveland Center
Thu 06:29:58 AM 42.9422 -78.5328 263° West 408 470 28,000  Level Cleveland Center
Thu 06:30:58 AM 42.9261 -78.6806 262° West 408 470 28,000  Level Cleveland Center
Thu 06:31:58 AM 42.9033 -78.8344 259° West 408 470 28,000  Level Cleveland Center
Thu 06:32:58 AM 42.8806 -78.9853 258° West 413 475 28,000  Level Cleveland Center
Thu 06:33:58 AM 42.8597 -79.1358 259° West 413 475 28,000  Level Cleveland Center
Thu 06:34:58 AM 42.8386 -79.2892 259° West 413 475 28,000  Level Cleveland Center
Thu 06:35:58 AM 42.8153 -79.4425 258° West 413 475 28,000  Level Cleveland Center
Thu 06:36:58 AM 42.7917 -79.5986 258° West 413 475 28,000  Level Cleveland Center
Thu 06:37:58 AM 42.7678 -79.7544 258° West 413 475 28,000  Level Cleveland Center
Thu 06:38:58 AM 42.7500 -79.9103 261° West 413 475 28,000  Level Cleveland Center
Thu 06:39:58 AM 42.7425 -80.0714 266° West 419 482 28,000  Level Cleveland Center
Thu 06:40:58 AM 42.7389 -80.2158 268° West 427 491 28,000  Level Cleveland Center
Thu 06:41:58 AM 42.7308 -80.3683 266° West 422 486 28,000  Level Cleveland Center
Thu 06:42:58 AM 42.7228 -80.5267 266° West 422 486 28,000  Level Cleveland Center
Thu 06:43:58 AM 42.7164 -80.6850 267° West 422 486 28,000  Level Cleveland Center
Thu 06:44:58 AM 42.7100 -80.8403 267° West 422 486 28,000  Level Cleveland Center
Thu 06:45:58 AM 42.6950 -80.9983 263° West 422 486 28,000  Level Cleveland Center
Thu 06:46:58 AM 42.6775 -81.1564 261° West 422 486 28,000 -750 Level Cleveland Center
Thu 06:47:58 AM 42.6558 -81.3172 260° West 427 491 26,500 -1,550 Descending Cleveland Center
Thu 06:48:58 AM 42.6358 -81.4947 261° West 435 501 24,900 -1,800 Descending Cleveland Center
Thu 06:49:58 AM 42.6178 -81.6581 262° West 435 501 22,900 -2,000 Descending Cleveland Center
Thu 06:50:58 AM 42.5997 -81.7961 260° West 425 489 20,900 -2,000 Descending Cleveland Center
Thu 06:51:58 AM 42.5814 -81.9481 261° West 420 483 18,900 -1,850 Descending Cleveland Center
Thu 06:52:58 AM 42.5650 -82.0914 261° West 408 470 17,200 -1,850 Descending Cleveland Center
Thu 06:53:58 AM 42.5464 -82.2347 260° West 403 464 15,200 -2,073 Descending Cleveland Center
Thu 06:54:48 AM 42.5317 -82.3694 262° West 376 433 13,400 -1,676 Descending Cleveland Center
Thu 06:55:49 AM 42.5131 -82.5042 259° West 370 426 12,100 -984 Descending Cleveland Center
Thu 06:56:56 AM 42.4750 -82.6439 250° West 326 375 11,300 -1,023 Descending Cleveland Center
Thu 06:57:58 AM 42.4400 -82.7356 243° Southwest 333 383 9,900 -1,426 Descending Cleveland Center
Thu 06:58:58 AM 42.4153 -82.8275 250° West 296 341 8,400 -1,579 Descending Cleveland Center
Thu 06:59:52 AM 42.3967 -82.9281 256° West 266 306 6,900 -1,263 Descending Cleveland Center
Thu 07:00:52 AM 42.3758 -83.0228 253° West 271 312 6,000 -810 Descending Cleveland Center
Thu 07:01:58 AM 42.3572 -83.1122 254° West 267 307 5,200 -1,333 Descending Cleveland Center
Thu 07:02:58 AM 42.3389 -83.1956 253° West 250 288 3,200 -1,300 Descending Cleveland Center
Thu 07:03:58 AM 42.3164 -83.2650 246° West 229 264 2,600 -600 Descending Cleveland Center

Login

Don't have an account? Register now (free) for customized features, flight alerts, and more!